Check time and date!

LGTT 251600Z 21009KT CAVOK 28/12 Q1017 RMK FEW180
TAF LGTT 250700Z 2509/2518 VRB05KT 9999 FEW020
--------------------------------------
LGMG 251500Z 00000KT 9999 FEW025 30/06 Q1015
TAF LGMG 250700Z 2509/2518 VRB05KT 9999 FEW020 TEMPO 2510/2515 18010KT
--------------------------------------
LGTG 251550Z 00000KT CAVOK 28/14 Q1015 RMK FEW180
TAF LGTG 251400Z 2515/2524 04007KT 9999 FEW025 TEMPO 2515/2516 FEW025 BKN070 BECMG 2517/2519 VRB03KT
--------------------------------------
LGEL 251550Z 18006KT CAVOK 28/14 Q1015
TAF LGEL 251100Z 2512/2612 VRB05KT 9999 FEW025 TEMPO 2512/2515 17012KT TEMPO 2609/2612 17012KT
--------------------------------------
LGAV 251550Z 20011KT CAVOK 29/11 Q1016 RMK NOSIG
TAF LGAV 251100Z 2512/2612 VRB05KT 9999 FEW025 TEMPO 2512/2515 16012KT SCT025
--------------------------------------
--------------------------------------
METAR LGAD 251550Z 29006KT 9999 FEW020 26/10 Q1017
METAR LGAL 251550Z 24005KT CAVOK 26/16 Q1015
METAR LGAV 251550Z 20011KT CAVOK 29/11 Q1016 NOSIG
METAR LGBL 251550Z 07009KT 9999 FEW030 26/16 Q1014
METAR LGEL 251550Z 18006KT CAVOK 28/14 Q1015
METAR LGHI 251550Z VRB01KT CAVOK 24/19 Q1015
METAR LGIO 251550Z 30009KT CAVOK 28/12 Q1018
METAR LGIR 251550Z 05004KT CAVOK 24/18 Q1017 NOSIG
METAR LGKC 251550Z 26007KT CAVOK 29/20 Q1018
METAR LGKF 251550Z 29004KT CAVOK 25/16 Q1017
METAR LGKL 251550Z 17004KT 9999 FEW025 27/15 Q1016
METAR LGKO 251550Z 30010KT CAVOK 28/16 Q1016
METAR LGKP 251550Z 31011KT CAVOK 26/17 Q1015
METAR LGKR 251550Z 08004KT CAVOK 28/12 Q1016 NOSIG
METAR LGKV 251550Z 27006KT 9999 FEW025 26/15 Q1015
METAR LGKZ 251550Z AUTO VRB02KT //// // ////// 28/13 Q1017 RE//
METAR LGLM 251550Z 02007KT CAVOK 25/13 Q1016
METAR LGLR 251550Z 08014KT 9999 FEW035 29/15 Q1014 RMK FEW100 BLU
METAR LGMK 251550Z 00000KT CAVOK 26/16 Q1016
METAR LGMT 251550Z 34006KT CAVOK 27/15 Q1016
METAR LGNX 251550Z 20006KT CAVOK 26/18 Q1016
METAR LGPA 251550Z 17006KT CAVOK 26/16 Q1016
METAR LGPZ 251550Z 26011KT 9999 FEW030 24/17 Q1017
METAR LGRP 251550Z 24012KT 9999 SCT025 26/19 Q1015 NOSIG
METAR LGRX 251550Z 00000KT CAVOK 26/13 Q1017
METAR LGSA 251550Z VRB03KT CAVOK 26/19 Q1017
METAR LGSK 251550Z 01007KT CAVOK 26/19 Q1015
METAR LGSM 251550Z 12007KT CAVOK 25/19 Q1016
METAR LGSO 251550Z 20006KT 170V240 CAVOK 29/13 Q1016
METAR LGSR 251550Z 00000KT CAVOK 26/16 Q1016 BLU
METAR LGSY 251550Z 05004KT CAVOK 24/19 Q1016 BLU
METAR LGTG 251550Z 00000KT CAVOK 28/14 Q1015 RMK FEW180 BLU
METAR LGTS 251550Z 19011KT 9999 FEW025 27/16 Q1015 NOSIG
METAR LGZA 251550Z 15005KT CAVOK 27/14 Q1017

--------------------------------------
TAF LGAD 251400Z 2515/2524 30010KT 9999 FEW025 BECMG 2516/2518 VRB03KT
TAF LGAL 251400Z 2515/2524 VRB03KT 9999 FEW025 TEMPO 2515/2518 27010KT
TAF LGAV 251100Z 2512/2612 VRB05KT 9999 FEW025 TEMPO 2512/2515 16012KT SCT025
TAF LGBL 251400Z 2515/2524 11012KT 9999 FEW025 TEMPO 2515/2516 FEW025 BKN080 BECMG 2518/2520 28006KT
TAF LGEL 251100Z 2512/2612 VRB05KT 9999 FEW025 TEMPO 2512/2515 17012KT TEMPO 2609/2612 17012KT
TAF LGHI 251400Z 2515/2524 VRB05KT 9999 FEW025
TAF LGIO 251400Z 2515/2524 VRB03KT 9999 FEW025
TAF LGIR 251100Z 2512/2612 VRB05KT 9999 FEW020
TAF LGKC 251400Z 2515/2524 27010KT 9999 FEW015
TAF LGKF 251400Z 2515/2524 VRB05KT 9999 FEW025
TAF LGKL 251400Z 2515/2524 15012KT 9999 FEW025 BECMG 2517/2519 36008KT
TAF LGKO 251100Z 2512/2612 30010KT 9999 FEW020 TEMPO 2512/2524 32010G20KT
TAF LGKP 251400Z 2515/2524 31018KT 9999 FEW020
TAF LGKR 251100Z 2512/2612 VRB05KT 9999 FEW018 TEMPO 2512/2521 16010KT
TAF LGKV 251100Z 2512/2612 VRB03KT 9999 FEW025 PROB40 TEMPO 2513/2516 6000 SHRA FEW020TCU SCT025
TAF LGLM 251400Z 2515/2524 VRB03KT 9999 FEW020
TAF LGLR 251400Z 2515/2524 09008KT 9999 FEW025 PROB30 TEMPO 2515/2516 5000 SHRA FEW020TCU SCT020 BKN080 BECMG 2518/2520 VRB03KT
TAF LGMK 251400Z 2515/2524 VRB05KT 9999 FEW020 BECMG 2516/2518 25010KT
TAF LGMT 251400Z 2515/2524 VRB05KT 9999 FEW030
TAF LGPZ 251100Z 2512/2612 VRB05KT 9999 FEW025 TEMPO 2512/2517 27012KT
TAF LGRP 251100Z 2512/2612 27010KT 9999 FEW018 TEMPO 2512/2524 26012G22KT TEMPO 2609/2612 26010G22KT
TAF LGRX 251400Z 2515/2524 27010KT 9999 FEW025 BECMG 2517/2519 VRB03KT
TAF LGSA 251100Z 2512/2612 VRB05KT 9999 FEW015
TAF LGSK 251400Z 2515/2524 VRB05KT 9999 FEW025 TEMPO 2515/2518 16010KT
TAF LGSM 251400Z 2515/2524 VRB05KT 9999 FEW025
TAF LGSR 251100Z 2512/2612 VRB05KT 9999 FEW025 TEMPO 2520/2612 27010KT
TAF LGST 251400Z 2515/2524 VRB05KT 9999 FEW020 BECMG 2518/2520 26010KT
TAF LGSY 251400Z 2515/2524 VRB03KT 9999 FEW020
TAF LGTG 251400Z 2515/2524 04007KT 9999 FEW025 TEMPO 2515/2516 FEW025 BKN070 BECMG 2517/2519 VRB03KT
TAF LGTL 251400Z 2515/2524 VRB03KT 9999 FEW020
TAF LGTS 251100Z 2512/2612 16013KT 9999 FEW025 PROB40 TEMPO 2515/2518 6000 SHRA FEW020TCU SCT025 PROB30 TEMPO 2515/2518 4000 TSRA FEW018CB BKN025 BECMG 2518/2520 VRB03KT
TAF LGZA 251400Z 2515/2524 VRB05KT 9999 FEW015